sensor_id;sensor_type;location;lat;lon;timestamp;P1;durP1;ratioP1;P2;durP2;ratioP2
60494;SDS011;46342;49.046;11.920;2023-02-01T00:00:05;2.95;;;2.70;;
60494;SDS011;46342;49.046;11.920;2023-02-01T00:02:31;2.05;;;1.70;;
60494;SDS011;46342;49.046;11.920;2023-02-01T00:04:57;1.83;;;1.20;;
60494;SDS011;46342;49.046;11.920;2023-02-01T00:07:22;1.10;;;1.00;;
60494;SDS011;46342;49.046;11.920;2023-02-01T00:09:48;1.30;;;1.20;;
60494;SDS011;46342;49.046;11.920;2023-02-01T00:12:13;1.65;;;1.20;;
60494;SDS011;46342;49.046;11.920;2023-02-01T00:14:39;2.35;;;1.83;;
60494;SDS011;46342;49.046;11.920;2023-02-01T00:17:05;1.58;;;1.48;;
60494;SDS011;46342;49.046;11.920;2023-02-01T00:19:34;1.70;;;1.55;;
60494;SDS011;46342;49.046;11.920;2023-02-01T00:22:00;2.58;;;1.90;;
60494;SDS011;46342;49.046;11.920;2023-02-01T00:24:25;3.30;;;2.05;;
60494;SDS011;46342;49.046;11.920;2023-02-01T00:26:51;1.90;;;1.63;;
60494;SDS011;46342;49.046;11.920;2023-02-01T00:29:18;1.38;;;1.27;;
60494;SDS011;46342;49.046;11.920;2023-02-01T00:31:45;1.75;;;1.20;;
60494;SDS011;46342;49.046;11.920;2023-02-01T00:34:11;2.08;;;1.67;;
60494;SDS011;46342;49.046;11.920;2023-02-01T00:36:38;2.10;;;1.25;;
60494;SDS011;46342;49.046;11.920;2023-02-01T00:39:04;1.40;;;1.30;;
60494;SDS011;46342;49.046;11.920;2023-02-01T00:41:30;1.17;;;1.00;;
60494;SDS011;46342;49.046;11.920;2023-02-01T00:43:55;1.45;;;1.30;;
60494;SDS011;46342;49.046;11.920;2023-02-01T00:46:21;1.67;;;1.30;;
60494;SDS011;46342;49.046;11.920;2023-02-01T00:48:47;2.25;;;1.63;;
60494;SDS011;46342;49.046;11.920;2023-02-01T00:51:15;3.00;;;1.95;;
60494;SDS011;46342;49.046;11.920;2023-02-01T00:53:41;2.85;;;1.50;;
60494;SDS011;46342;49.046;11.920;2023-02-01T00:56:07;1.13;;;1.02;;
60494;SDS011;46342;49.046;11.920;2023-02-01T00:58:33;1.60;;;1.30;;
60494;SDS011;46342;49.046;11.920;2023-02-01T01:01:03;1.95;;;1.35;;
60494;SDS011;46342;49.046;11.920;2023-02-01T01:03:31;3.05;;;2.20;;
60494;SDS011;46342;49.046;11.920;2023-02-01T01:06:01;3.40;;;2.50;;
60494;SDS011;46342;49.046;11.920;2023-02-01T01:08:28;4.20;;;2.13;;
60494;SDS011;46342;49.046;11.920;2023-02-01T01:10:54;1.73;;;1.45;;
60494;SDS011;46342;49.046;11.920;2023-02-01T01:13:20;1.40;;;1.30;;
60494;SDS011;46342;49.046;11.920;2023-02-01T01:15:46;1.88;;;1.52;;
60494;SDS011;46342;49.046;11.920;2023-02-01T01:18:11;1.70;;;1.38;;
60494;SDS011;46342;49.046;11.920;2023-02-01T01:20:38;2.55;;;1.80;;
60494;SDS011;46342;49.046;11.920;2023-02-01T01:23:05;1.75;;;1.52;;
60494;SDS011;46342;49.046;11.920;2023-02-01T01:25:32;3.42;;;2.63;;
60494;SDS011;46342;49.046;11.920;2023-02-01T01:28:03;2.70;;;2.28;;
60494;SDS011;46342;49.046;11.920;2023-02-01T01:30:28;2.20;;;2.00;;
60494;SDS011;46342;49.046;11.920;2023-02-01T01:32:54;2.30;;;1.70;;
60494;SDS011;46342;49.046;11.920;2023-02-01T01:35:19;3.17;;;2.15;;
60494;SDS011;46342;49.046;11.920;2023-02-01T01:37:45;2.05;;;1.63;;
60494;SDS011;46342;49.046;11.920;2023-02-01T01:40:11;3.05;;;2.40;;
60494;SDS011;46342;49.046;11.920;2023-02-01T01:42:37;2.17;;;1.98;;
60494;SDS011;46342;49.046;11.920;2023-02-01T01:45:16;2.28;;;1.70;;
60494;SDS011;46342;49.046;11.920;2023-02-01T01:47:51;1.77;;;1.67;;
60494;SDS011;46342;49.046;11.920;2023-02-01T01:50:20;2.70;;;1.70;;
60494;SDS011;46342;49.046;11.920;2023-02-01T01:52:50;2.53;;;1.60;;
60494;SDS011;46342;49.046;11.920;2023-02-01T01:55:20;2.50;;;1.70;;
60494;SDS011;46342;49.046;11.920;2023-02-01T01:57:50;1.60;;;1.48;;
60494;SDS011;46342;49.046;11.920;2023-02-01T02:00:26;1.70;;;1.42;;
60494;SDS011;46342;49.046;11.920;2023-02-01T02:02:53;2.70;;;1.90;;
60494;SDS011;46342;49.046;11.920;2023-02-01T02:05:23;1.70;;;1.45;;
60494;SDS011;46342;49.046;11.920;2023-02-01T02:07:50;1.15;;;1.05;;
60494;SDS011;46342;49.046;11.920;2023-02-01T02:10:18;1.83;;;1.35;;
60494;SDS011;46342;49.046;11.920;2023-02-01T02:12:44;1.90;;;1.63;;
60494;SDS011;46342;49.046;11.920;2023-02-01T02:15:13;1.50;;;1.30;;
60494;SDS011;46342;49.046;11.920;2023-02-01T02:17:53;2.13;;;1.73;;
60494;SDS011;46342;49.046;11.920;2023-02-01T02:31:35;1.90;;;1.23;;
60494;SDS011;46342;49.046;11.920;2023-02-01T02:37:14;2.03;;;1.42;;
60494;SDS011;46342;49.046;11.920;2023-02-01T02:42:57;1.65;;;1.50;;
60494;SDS011;46342;49.046;11.920;2023-02-01T02:45:52;1.67;;;1.30;;
60494;SDS011;46342;49.046;11.920;2023-02-01T02:51:46;1.90;;;1.67;;
60494;SDS011;46342;49.046;11.920;2023-02-01T02:54:36;1.63;;;1.38;;
60494;SDS011;46342;49.046;11.920;2023-02-01T02:57:11;2.42;;;1.40;;
60494;SDS011;46342;49.046;11.920;2023-02-01T02:59:59;1.30;;;1.20;;
60494;SDS011;46342;49.046;11.920;2023-02-01T03:02:48;1.83;;;1.50;;
60494;SDS011;46342;49.046;11.920;2023-02-01T03:05:33;1.40;;;1.30;;
60494;SDS011;46342;49.046;11.920;2023-02-01T03:08:02;2.15;;;1.58;;
60494;SDS011;46342;49.046;11.920;2023-02-01T03:13:12;1.60;;;1.45;;
60494;SDS011;46342;49.046;11.920;2023-02-01T03:18:57;1.67;;;1.50;;
60494;SDS011;46342;49.046;11.920;2023-02-01T03:21:48;1.95;;;1.75;;
60494;SDS011;46342;49.046;11.920;2023-02-01T03:24:21;1.65;;;1.50;;
60494;SDS011;46342;49.046;11.920;2023-02-01T03:27:08;2.80;;;1.70;;
60494;SDS011;46342;49.046;11.920;2023-02-01T03:29:44;1.83;;;1.50;;
60494;SDS011;46342;49.046;11.920;2023-02-01T03:32:15;1.60;;;1.45;;
60494;SDS011;46342;49.046;11.920;2023-02-01T03:34:41;1.60;;;1.35;;
60494;SDS011;46342;49.046;11.920;2023-02-01T03:37:08;1.45;;;1.35;;
60494;SDS011;46342;49.046;11.920;2023-02-01T03:40:11;1.65;;;1.42;;
60494;SDS011;46342;49.046;11.920;2023-02-01T03:45:42;2.05;;;1.63;;
60494;SDS011;46342;49.046;11.920;2023-02-01T03:48:05;1.80;;;1.45;;
60494;SDS011;46342;49.046;11.920;2023-02-01T03:50:33;3.22;;;1.65;;
60494;SDS011;46342;49.046;11.920;2023-02-01T03:53:05;2.03;;;1.38;;
60494;SDS011;46342;49.046;11.920;2023-02-01T03:55:33;1.70;;;1.60;;
60494;SDS011;46342;49.046;11.920;2023-02-01T03:58:20;1.77;;;1.40;;
60494;SDS011;46342;49.046;11.920;2023-02-01T04:00:54;1.83;;;1.52;;
60494;SDS011;46342;49.046;11.920;2023-02-01T04:03:24;2.47;;;1.60;;
60494;SDS011;46342;49.046;11.920;2023-02-01T04:05:52;2.03;;;1.60;;
60494;SDS011;46342;49.046;11.920;2023-02-01T04:08:22;1.85;;;1.63;;
60494;SDS011;46342;49.046;11.920;2023-02-01T04:10:48;2.13;;;1.70;;
60494;SDS011;46342;49.046;11.920;2023-02-01T04:13:14;3.78;;;1.48;;
60494;SDS011;46342;49.046;11.920;2023-02-01T04:15:39;1.65;;;1.55;;
60494;SDS011;46342;49.046;11.920;2023-02-01T04:18:05;2.05;;;1.50;;
60494;SDS011;46342;49.046;11.920;2023-02-01T04:20:31;1.65;;;1.20;;
60494;SDS011;46342;49.046;11.920;2023-02-01T04:22:56;1.48;;;1.35;;
60494;SDS011;46342;49.046;11.920;2023-02-01T04:25:22;2.30;;;1.40;;
60494;SDS011;46342;49.046;11.920;2023-02-01T04:27:48;1.55;;;1.42;;
60494;SDS011;46342;49.046;11.920;2023-02-01T04:30:13;1.40;;;1.30;;
60494;SDS011;46342;49.046;11.920;2023-02-01T04:32:39;3.03;;;1.42;;
60494;SDS011;46342;49.046;11.920;2023-02-01T04:35:06;2.58;;;1.38;;
60494;SDS011;46342;49.046;11.920;2023-02-01T04:37:32;1.63;;;1.30;;
60494;SDS011;46342;49.046;11.920;2023-02-01T04:39:58;1.30;;;1.20;;
60494;SDS011;46342;49.046;11.920;2023-02-01T04:42:24;2.75;;;1.40;;
60494;SDS011;46342;49.046;11.920;2023-02-01T04:44:49;1.73;;;1.45;;
60494;SDS011;46342;49.046;11.920;2023-02-01T04:47:15;1.88;;;1.42;;
60494;SDS011;46342;49.046;11.920;2023-02-01T04:49:41;1.92;;;1.50;;
60494;SDS011;46342;49.046;11.920;2023-02-01T04:52:06;1.63;;;1.30;;
60494;SDS011;46342;49.046;11.920;2023-02-01T04:54:33;1.55;;;1.23;;
60494;SDS011;46342;49.046;11.920;2023-02-01T04:56:58;2.78;;;1.38;;
60494;SDS011;46342;49.046;11.920;2023-02-01T04:59:25;1.55;;;1.15;;
60494;SDS011;46342;49.046;11.920;2023-02-01T05:01:51;1.80;;;1.33;;
60494;SDS011;46342;49.046;11.920;2023-02-01T05:04:17;1.48;;;1.20;;
60494;SDS011;46342;49.046;11.920;2023-02-01T05:06:43;1.50;;;1.40;;
60494;SDS011;46342;49.046;11.920;2023-02-01T05:09:09;1.25;;;1.15;;
60494;SDS011;46342;49.046;11.920;2023-02-01T05:11:35;1.25;;;1.15;;
60494;SDS011;46342;49.046;11.920;2023-02-01T05:14:19;1.55;;;1.45;;
60494;SDS011;46342;49.046;11.920;2023-02-01T05:16:45;1.30;;;1.20;;
60494;SDS011;46342;49.046;11.920;2023-02-01T05:19:10;1.10;;;1.00;;
60494;SDS011;46342;49.046;11.920;2023-02-01T05:21:36;1.48;;;1.20;;
60494;SDS011;46342;49.046;11.920;2023-02-01T05:24:01;1.38;;;1.17;;
60494;SDS011;46342;49.046;11.920;2023-02-01T05:26:42;1.55;;;1.30;;
60494;SDS011;46342;49.046;11.920;2023-02-01T05:29:08;2.13;;;1.40;;
60494;SDS011;46342;49.046;11.920;2023-02-01T05:31:34;2.22;;;1.50;;
60494;SDS011;46342;49.046;11.920;2023-02-01T05:34:00;1.20;;;1.10;;
60494;SDS011;46342;49.046;11.920;2023-02-01T05:36:26;2.03;;;1.40;;
60494;SDS011;46342;49.046;11.920;2023-02-01T05:38:51;2.17;;;1.20;;
60494;SDS011;46342;49.046;11.920;2023-02-01T05:41:17;1.98;;;1.25;;
60494;SDS011;46342;49.046;11.920;2023-02-01T05:43:42;2.70;;;1.30;;
60494;SDS011;46342;49.046;11.920;2023-02-01T05:46:08;1.40;;;1.30;;
60494;SDS011;46342;49.046;11.920;2023-02-01T05:48:37;1.02;;;0.98;;
60494;SDS011;46342;49.046;11.920;2023-02-01T05:51:03;1.25;;;1.15;;
60494;SDS011;46342;49.046;11.920;2023-02-01T05:53:29;2.00;;;1.20;;
60494;SDS011;46342;49.046;11.920;2023-02-01T05:55:54;1.40;;;1.30;;
60494;SDS011;46342;49.046;11.920;2023-02-01T05:58:20;1.25;;;1.15;;
60494;SDS011;46342;49.046;11.920;2023-02-01T06:00:45;1.15;;;1.05;;
60494;SDS011;46342;49.046;11.920;2023-02-01T06:03:11;1.20;;;1.10;;
60494;SDS011;46342;49.046;11.920;2023-02-01T06:05:36;1.38;;;1.17;;
60494;SDS011;46342;49.046;11.920;2023-02-01T06:08:02;1.40;;;1.30;;
60494;SDS011;46342;49.046;11.920;2023-02-01T06:10:28;1.13;;;1.08;;
60494;SDS011;46342;49.046;11.920;2023-02-01T06:12:53;1.15;;;1.05;;
60494;SDS011;46342;49.046;11.920;2023-02-01T06:15:19;1.25;;;1.10;;
60494;SDS011;46342;49.046;11.920;2023-02-01T06:17:45;1.23;;;1.08;;
60494;SDS011;46342;49.046;11.920;2023-02-01T06:20:12;1.20;;;0.90;;
60494;SDS011;46342;49.046;11.920;2023-02-01T06:22:38;1.40;;;1.23;;
60494;SDS011;46342;49.046;11.920;2023-02-01T06:25:05;2.22;;;0.88;;
60494;SDS011;46342;49.046;11.920;2023-02-01T06:27:32;1.20;;;1.00;;
60494;SDS011;46342;49.046;11.920;2023-02-01T06:29:58;1.15;;;1.05;;
60494;SDS011;46342;49.046;11.920;2023-02-01T06:32:23;1.27;;;1.17;;
60494;SDS011;46342;49.046;11.920;2023-02-01T06:34:49;1.33;;;1.23;;
60494;SDS011;46342;49.046;11.920;2023-02-01T06:37:17;1.20;;;1.10;;
60494;SDS011;46342;49.046;11.920;2023-02-01T06:39:43;0.80;;;0.80;;
60494;SDS011;46342;49.046;11.920;2023-02-01T06:42:09;2.30;;;1.20;;
60494;SDS011;46342;49.046;11.920;2023-02-01T06:44:35;3.50;;;1.67;;
60494;SDS011;46342;49.046;11.920;2023-02-01T06:47:00;1.73;;;1.40;;
60494;SDS011;46342;49.046;11.920;2023-02-01T06:49:27;1.25;;;1.15;;
60494;SDS011;46342;49.046;11.920;2023-02-01T06:51:53;1.48;;;1.25;;
60494;SDS011;46342;49.046;11.920;2023-02-01T06:54:18;1.50;;;1.30;;
60494;SDS011;46342;49.046;11.920;2023-02-01T06:56:44;1.40;;;1.30;;
60494;SDS011;46342;49.046;11.920;2023-02-01T06:59:10;2.30;;;1.45;;
60494;SDS011;46342;49.046;11.920;2023-02-01T07:01:36;2.80;;;1.58;;
60494;SDS011;46342;49.046;11.920;2023-02-01T07:04:02;1.40;;;1.20;;
60494;SDS011;46342;49.046;11.920;2023-02-01T07:06:27;1.40;;;1.27;;
60494;SDS011;46342;49.046;11.920;2023-02-01T07:08:53;1.17;;;1.08;;
60494;SDS011;46342;49.046;11.920;2023-02-01T07:11:21;1.90;;;1.35;;
60494;SDS011;46342;49.046;11.920;2023-02-01T07:13:47;1.70;;;1.33;;
60494;SDS011;46342;49.046;11.920;2023-02-01T07:16:18;1.77;;;1.10;;
60494;SDS011;46342;49.046;11.920;2023-02-01T07:18:44;1.17;;;1.05;;
60494;SDS011;46342;49.046;11.920;2023-02-01T07:21:10;3.58;;;1.50;;
60494;SDS011;46342;49.046;11.920;2023-02-01T07:23:36;2.28;;;1.25;;
60494;SDS011;46342;49.046;11.920;2023-02-01T07:26:03;1.98;;;1.33;;
60494;SDS011;46342;49.046;11.920;2023-02-01T07:28:31;3.30;;;1.75;;
60494;SDS011;46342;49.046;11.920;2023-02-01T07:31:02;4.57;;;1.73;;
60494;SDS011;46342;49.046;11.920;2023-02-01T07:33:32;1.63;;;1.45;;
60494;SDS011;46342;49.046;11.920;2023-02-01T07:35:59;2.63;;;1.60;;
60494;SDS011;46342;49.046;11.920;2023-02-01T07:38:26;1.45;;;1.35;;
60494;SDS011;46342;49.046;11.920;2023-02-01T07:40:56;1.70;;;1.40;;
60494;SDS011;46342;49.046;11.920;2023-02-01T07:43:31;2.17;;;1.80;;
60494;SDS011;46342;49.046;11.920;2023-02-01T07:45:58;1.67;;;1.25;;
60494;SDS011;46342;49.046;11.920;2023-02-01T07:48:25;1.27;;;1.17;;
60494;SDS011;46342;49.046;11.920;2023-02-01T07:51:01;1.20;;;1.10;;
60494;SDS011;46342;49.046;11.920;2023-02-01T07:53:33;1.30;;;1.20;;
60494;SDS011;46342;49.046;11.920;2023-02-01T07:55:59;1.50;;;1.40;;
60494;SDS011;46342;49.046;11.920;2023-02-01T07:58:25;1.20;;;1.10;;
60494;SDS011;46342;49.046;11.920;2023-02-01T08:00:51;1.58;;;1.10;;
60494;SDS011;46342;49.046;11.920;2023-02-01T08:03:35;1.73;;;1.45;;
60494;SDS011;46342;49.046;11.920;2023-02-01T08:06:01;2.35;;;1.30;;
60494;SDS011;46342;49.046;11.920;2023-02-01T08:08:27;2.90;;;1.55;;
60494;SDS011;46342;49.046;11.920;2023-02-01T08:10:57;1.50;;;1.30;;
60494;SDS011;46342;49.046;11.920;2023-02-01T08:13:26;1.60;;;1.17;;
60494;SDS011;46342;49.046;11.920;2023-02-01T08:15:52;1.42;;;1.20;;
60494;SDS011;46342;49.046;11.920;2023-02-01T08:18:22;1.52;;;1.40;;
60494;SDS011;46342;49.046;11.920;2023-02-01T08:20:47;1.23;;;1.15;;
60494;SDS011;46342;49.046;11.920;2023-02-01T08:23:13;1.40;;;1.30;;
60494;SDS011;46342;49.046;11.920;2023-02-01T08:25:38;1.40;;;1.30;;
60494;SDS011;46342;49.046;11.920;2023-02-01T08:28:04;1.40;;;1.15;;
60494;SDS011;46342;49.046;11.920;2023-02-01T08:30:31;1.23;;;1.13;;
60494;SDS011;46342;49.046;11.920;2023-02-01T08:32:57;1.52;;;1.00;;
60494;SDS011;46342;49.046;11.920;2023-02-01T08:35:23;1.42;;;1.17;;
60494;SDS011;46342;49.046;11.920;2023-02-01T08:37:51;1.10;;;1.00;;
60494;SDS011;46342;49.046;11.920;2023-02-01T08:40:17;0.82;;;0.82;;
60494;SDS011;46342;49.046;11.920;2023-02-01T08:42:43;1.25;;;1.00;;
60494;SDS011;46342;49.046;11.920;2023-02-01T08:45:16;1.10;;;1.00;;
60494;SDS011;46342;49.046;11.920;2023-02-01T08:47:43;1.25;;;1.10;;
60494;SDS011;46342;49.046;11.920;2023-02-01T08:50:09;1.10;;;1.00;;
60494;SDS011;46342;49.046;11.920;2023-02-01T08:52:35;2.10;;;0.88;;
60494;SDS011;46342;49.046;11.920;2023-02-01T08:55:01;1.30;;;1.02;;
60494;SDS011;46342;49.046;11.920;2023-02-01T08:57:27;1.48;;;0.90;;
60494;SDS011;46342;49.046;11.920;2023-02-01T08:59:52;0.90;;;0.90;;
60494;SDS011;46342;49.046;11.920;2023-02-01T09:02:18;1.50;;;0.90;;
60494;SDS011;46342;49.046;11.920;2023-02-01T09:04:43;1.17;;;0.88;;
60494;SDS011;46342;49.046;11.920;2023-02-01T09:07:09;1.00;;;0.90;;
60494;SDS011;46342;49.046;11.920;2023-02-01T09:09:35;0.90;;;0.90;;
60494;SDS011;46342;49.046;11.920;2023-02-01T09:12:03;1.20;;;1.10;;
60494;SDS011;46342;49.046;11.920;2023-02-01T09:14:29;1.70;;;1.05;;
60494;SDS011;46342;49.046;11.920;2023-02-01T09:16:55;0.95;;;0.90;;
60494;SDS011;46342;49.046;11.920;2023-02-01T09:19:20;1.17;;;1.08;;
60494;SDS011;46342;49.046;11.920;2023-02-01T09:21:46;2.38;;;1.00;;
60494;SDS011;46342;49.046;11.920;2023-02-01T09:24:11;1.38;;;0.90;;
60494;SDS011;46342;49.046;11.920;2023-02-01T09:26:37;0.90;;;0.90;;
60494;SDS011;46342;49.046;11.920;2023-02-01T09:29:03;0.93;;;0.90;;
60494;SDS011;46342;49.046;11.920;2023-02-01T09:31:31;1.45;;;0.95;;
60494;SDS011;46342;49.046;11.920;2023-02-01T09:33:57;1.00;;;0.90;;
60494;SDS011;46342;49.046;11.920;2023-02-01T09:36:23;0.88;;;0.88;;
60494;SDS011;46342;49.046;11.920;2023-02-01T09:38:49;1.63;;;0.80;;
60494;SDS011;46342;49.046;11.920;2023-02-01T09:41:21;1.40;;;1.00;;
60494;SDS011;46342;49.046;11.920;2023-02-01T09:46:46;2.03;;;1.20;;
60494;SDS011;46342;49.046;11.920;2023-02-01T09:49:18;1.15;;;1.08;;
60494;SDS011;46342;49.046;11.920;2023-02-01T09:51:52;3.42;;;1.20;;
60494;SDS011;46342;49.046;11.920;2023-02-01T09:56:55;1.77;;;1.20;;
60494;SDS011;46342;49.046;11.920;2023-02-01T10:02:18;1.53;;;1.13;;
60494;SDS011;46342;49.046;11.920;2023-02-01T10:04:47;1.23;;;1.10;;
60494;SDS011;46342;49.046;11.920;2023-02-01T10:18:05;2.28;;;1.50;;
60494;SDS011;46342;49.046;11.920;2023-02-01T10:20:56;1.75;;;1.35;;
60494;SDS011;46342;49.046;11.920;2023-02-01T10:26:12;2.93;;;1.60;;
60494;SDS011;46342;49.046;11.920;2023-02-01T10:28:44;1.98;;;1.30;;
60494;SDS011;46342;49.046;11.920;2023-02-01T10:31:14;1.98;;;1.70;;
60494;SDS011;46342;49.046;11.920;2023-02-01T10:33:41;4.38;;;2.10;;
60494;SDS011;46342;49.046;11.920;2023-02-01T10:36:21;5.15;;;1.88;;
60494;SDS011;46342;49.046;11.920;2023-02-01T10:38:53;3.35;;;1.50;;
60494;SDS011;46342;49.046;11.920;2023-02-01T10:41:21;3.38;;;1.60;;
60494;SDS011;46342;49.046;11.920;2023-02-01T10:43:52;3.78;;;1.80;;
60494;SDS011;46342;49.046;11.920;2023-02-01T10:46:25;3.08;;;1.77;;
60494;SDS011;46342;49.046;11.920;2023-02-01T10:48:52;3.13;;;1.58;;
60494;SDS011;46342;49.046;11.920;2023-02-01T10:53:52;2.70;;;1.45;;
60494;SDS011;46342;49.046;11.920;2023-02-01T10:56:28;3.42;;;1.83;;
60494;SDS011;46342;49.046;11.920;2023-02-01T10:59:04;5.97;;;2.08;;
60494;SDS011;46342;49.046;11.920;2023-02-01T11:01:36;3.72;;;1.70;;
60494;SDS011;46342;49.046;11.920;2023-02-01T11:04:11;8.73;;;1.85;;
60494;SDS011;46342;49.046;11.920;2023-02-01T11:06:40;3.42;;;2.10;;
60494;SDS011;46342;49.046;11.920;2023-02-01T11:09:10;4.60;;;1.58;;
60494;SDS011;46342;49.046;11.920;2023-02-01T11:16:48;4.57;;;1.80;;
60494;SDS011;46342;49.046;11.920;2023-02-01T11:19:17;3.25;;;1.50;;
60494;SDS011;46342;49.046;11.920;2023-02-01T11:21:43;5.70;;;1.73;;
60494;SDS011;46342;49.046;11.920;2023-02-01T11:24:18;3.22;;;1.70;;
60494;SDS011;46342;49.046;11.920;2023-02-01T11:26:49;5.28;;;2.00;;
60494;SDS011;46342;49.046;11.920;2023-02-01T11:29:17;3.03;;;1.70;;
60494;SDS011;46342;49.046;11.920;2023-02-01T11:31:47;5.00;;;1.67;;
60494;SDS011;46342;49.046;11.920;2023-02-01T11:34:14;3.42;;;1.83;;
60494;SDS011;46342;49.046;11.920;2023-02-01T11:36:45;4.57;;;1.50;;
60494;SDS011;46342;49.046;11.920;2023-02-01T11:41:42;5.75;;;1.90;;
60494;SDS011;46342;49.046;11.920;2023-02-01T11:44:29;4.57;;;1.55;;
60494;SDS011;46342;49.046;11.920;2023-02-01T11:47:16;3.75;;;1.70;;
60494;SDS011;46342;49.046;11.920;2023-02-01T11:49:43;2.88;;;1.50;;
60494;SDS011;46342;49.046;11.920;2023-02-01T11:52:14;3.30;;;1.85;;
60494;SDS011;46342;49.046;11.920;2023-02-01T11:55:12;3.60;;;1.75;;
60494;SDS011;46342;49.046;11.920;2023-02-01T12:06:10;1.73;;;1.30;;
60494;SDS011;46342;49.046;11.920;2023-02-01T12:16:59;2.47;;;1.70;;
60494;SDS011;46342;49.046;11.920;2023-02-01T12:25:37;2.38;;;1.30;;
60494;SDS011;46342;49.046;11.920;2023-02-01T12:28:53;4.22;;;1.70;;
60494;SDS011;46342;49.046;11.920;2023-02-01T12:48:25;4.50;;;1.70;;
60494;SDS011;46342;49.046;11.920;2023-02-01T12:51:13;3.20;;;1.38;;
60494;SDS011;46342;49.046;11.920;2023-02-01T12:53:52;2.10;;;1.38;;
60494;SDS011;46342;49.046;11.920;2023-02-01T12:58:56;1.80;;;1.70;;
60494;SDS011;46342;49.046;11.920;2023-02-01T13:01:31;3.75;;;1.48;;
60494;SDS011;46342;49.046;11.920;2023-02-01T13:04:05;4.90;;;1.80;;
60494;SDS011;46342;49.046;11.920;2023-02-01T13:06:59;2.30;;;1.58;;
60494;SDS011;46342;49.046;11.920;2023-02-01T13:12:26;2.15;;;1.65;;
60494;SDS011;46342;49.046;11.920;2023-02-01T13:15:02;3.05;;;1.70;;
60494;SDS011;46342;49.046;11.920;2023-02-01T13:17:30;5.03;;;1.50;;
60494;SDS011;46342;49.046;11.920;2023-02-01T13:20:16;5.57;;;1.90;;
60494;SDS011;46342;49.046;11.920;2023-02-01T13:23:05;4.72;;;2.10;;
60494;SDS011;46342;49.046;11.920;2023-02-01T13:25:47;3.78;;;1.70;;
60494;SDS011;46342;49.046;11.920;2023-02-01T13:28:19;2.17;;;1.58;;
60494;SDS011;46342;49.046;11.920;2023-02-01T13:30:54;3.40;;;1.80;;
60494;SDS011;46342;49.046;11.920;2023-02-01T13:33:55;2.90;;;1.40;;
60494;SDS011;46342;49.046;11.920;2023-02-01T13:39:25;2.42;;;1.52;;
60494;SDS011;46342;49.046;11.920;2023-02-01T13:42:02;5.25;;;1.63;;
60494;SDS011;46342;49.046;11.920;2023-02-01T13:44:48;3.50;;;1.60;;
60494;SDS011;46342;49.046;11.920;2023-02-01T13:49:47;3.70;;;1.60;;
60494;SDS011;46342;49.046;11.920;2023-02-01T13:52:21;7.60;;;1.40;;
60494;SDS011;46342;49.046;11.920;2023-02-01T13:57:59;3.00;;;1.10;;
60494;SDS011;46342;49.046;11.920;2023-02-01T14:00:28;1.88;;;1.13;;
60494;SDS011;46342;49.046;11.920;2023-02-01T14:13:34;2.88;;;1.08;;
60494;SDS011;46342;49.046;11.920;2023-02-01T14:26:52;2.45;;;1.45;;
60494;SDS011;46342;49.046;11.920;2023-02-01T14:29:34;3.40;;;1.50;;
60494;SDS011;46342;49.046;11.920;2023-02-01T14:32:15;2.30;;;0.98;;
60494;SDS011;46342;49.046;11.920;2023-02-01T14:44:40;2.85;;;1.80;;
60494;SDS011;46342;49.046;11.920;2023-02-01T14:47:07;4.13;;;1.63;;
60494;SDS011;46342;49.046;11.920;2023-02-01T14:52:39;3.55;;;1.40;;
60494;SDS011;46342;49.046;11.920;2023-02-01T14:55:11;3.97;;;1.40;;
60494;SDS011;46342;49.046;11.920;2023-02-01T14:57:41;5.20;;;1.70;;
60494;SDS011;46342;49.046;11.920;2023-02-01T15:02:43;3.00;;;1.40;;
60494;SDS011;46342;49.046;11.920;2023-02-01T15:05:35;4.68;;;1.30;;
60494;SDS011;46342;49.046;11.920;2023-02-01T15:08:03;4.00;;;1.40;;
60494;SDS011;46342;49.046;11.920;2023-02-01T15:10:32;4.05;;;1.33;;
60494;SDS011;46342;49.046;11.920;2023-02-01T15:13:04;5.43;;;1.13;;
60494;SDS011;46342;49.046;11.920;2023-02-01T15:15:30;4.90;;;1.77;;
60494;SDS011;46342;49.046;11.920;2023-02-01T15:20:31;5.43;;;1.52;;
60494;SDS011;46342;49.046;11.920;2023-02-01T15:25:28;5.03;;;1.67;;
60494;SDS011;46342;49.046;11.920;2023-02-01T15:28:00;6.50;;;1.42;;
60494;SDS011;46342;49.046;11.920;2023-02-01T15:30:27;4.55;;;1.33;;
60494;SDS011;46342;49.046;11.920;2023-02-01T15:33:13;3.83;;;1.13;;
60494;SDS011;46342;49.046;11.920;2023-02-01T15:35:42;3.90;;;1.10;;
60494;SDS011;46342;49.046;11.920;2023-02-01T15:38:18;4.45;;;1.15;;
60494;SDS011;46342;49.046;11.920;2023-02-01T15:43:42;3.55;;;1.20;;
60494;SDS011;46342;49.046;11.920;2023-02-01T15:46:13;2.80;;;1.73;;
60494;SDS011;46342;49.046;11.920;2023-02-01T15:48:49;3.60;;;1.38;;
60494;SDS011;46342;49.046;11.920;2023-02-01T15:51:18;3.00;;;1.20;;
60494;SDS011;46342;49.046;11.920;2023-02-01T15:53:47;5.05;;;1.27;;
60494;SDS011;46342;49.046;11.920;2023-02-01T15:56:32;2.22;;;1.02;;
60494;SDS011;46342;49.046;11.920;2023-02-01T15:59:01;3.88;;;1.20;;
60494;SDS011;46342;49.046;11.920;2023-02-01T16:01:29;2.75;;;1.27;;
60494;SDS011;46342;49.046;11.920;2023-02-01T16:04:02;3.92;;;1.10;;
60494;SDS011;46342;49.046;11.920;2023-02-01T16:06:44;4.97;;;1.10;;
60494;SDS011;46342;49.046;11.920;2023-02-01T16:09:21;3.20;;;1.00;;
60494;SDS011;46342;49.046;11.920;2023-02-01T16:12:01;3.78;;;1.35;;
60494;SDS011;46342;49.046;11.920;2023-02-01T16:14:28;3.13;;;1.30;;
60494;SDS011;46342;49.046;11.920;2023-02-01T16:16:56;2.47;;;1.17;;
60494;SDS011;46342;49.046;11.920;2023-02-01T16:19:22;4.70;;;1.05;;
60494;SDS011;46342;49.046;11.920;2023-02-01T16:21:52;2.20;;;1.20;;
60494;SDS011;46342;49.046;11.920;2023-02-01T16:24:21;3.47;;;1.05;;
60494;SDS011;46342;49.046;11.920;2023-02-01T16:26:49;3.58;;;1.67;;
60494;SDS011;46342;49.046;11.920;2023-02-01T16:29:15;3.20;;;1.23;;
60494;SDS011;46342;49.046;11.920;2023-02-01T16:31:41;9.00;;;1.48;;
60494;SDS011;46342;49.046;11.920;2023-02-01T16:34:11;4.05;;;1.60;;
60494;SDS011;46342;49.046;11.920;2023-02-01T16:36:40;4.38;;;1.35;;
60494;SDS011;46342;49.046;11.920;2023-02-01T16:39:07;3.40;;;1.20;;
60494;SDS011;46342;49.046;11.920;2023-02-01T16:41:36;2.70;;;1.02;;
60494;SDS011;46342;49.046;11.920;2023-02-01T16:44:01;3.30;;;1.00;;
60494;SDS011;46342;49.046;11.920;2023-02-01T16:46:28;4.03;;;1.20;;
60494;SDS011;46342;49.046;11.920;2023-02-01T16:48:59;1.63;;;0.93;;
60494;SDS011;46342;49.046;11.920;2023-02-01T16:51:27;3.45;;;1.00;;
60494;SDS011;46342;49.046;11.920;2023-02-01T16:53:55;1.90;;;1.10;;
60494;SDS011;46342;49.046;11.920;2023-02-01T16:56:22;6.38;;;1.73;;
60494;SDS011;46342;49.046;11.920;2023-02-01T16:58:50;2.75;;;0.82;;
60494;SDS011;46342;49.046;11.920;2023-02-01T17:01:17;1.08;;;1.00;;
60494;SDS011;46342;49.046;11.920;2023-02-01T17:03:43;3.00;;;1.30;;
60494;SDS011;46342;49.046;11.920;2023-02-01T17:06:11;3.25;;;1.17;;
60494;SDS011;46342;49.046;11.920;2023-02-01T17:08:40;3.22;;;1.50;;
60494;SDS011;46342;49.046;11.920;2023-02-01T17:11:07;3.92;;;1.23;;
60494;SDS011;46342;49.046;11.920;2023-02-01T17:13:35;3.67;;;1.50;;
60494;SDS011;46342;49.046;11.920;2023-02-01T17:16:23;2.13;;;1.10;;
60494;SDS011;46342;49.046;11.920;2023-02-01T17:21:30;3.03;;;1.20;;
60494;SDS011;46342;49.046;11.920;2023-02-01T17:24:09;3.78;;;1.48;;
60494;SDS011;46342;49.046;11.920;2023-02-01T17:26:38;3.70;;;1.30;;
60494;SDS011;46342;49.046;11.920;2023-02-01T17:29:03;1.45;;;1.10;;
60494;SDS011;46342;49.046;11.920;2023-02-01T17:31:29;5.00;;;1.23;;